This is the latest recevied weather packets stored in our database for station/object EA3IBE-10. If no packets are shown the sender has not sent any weather packets the latest 10 day(s).
| Time | Temp. | Humidity | Pressure | Rain* | Wind** | Luminosity | Snow |
|---|---|---|---|---|---|---|---|
| 1777476556 | 23.89° C | 35% | 1010.4 hPa | - | - | - | - |
| 1777474156 | 26.67° C | 31% | 1010.6 hPa | - | - | - | - |
| 1777471756 | 27.78° C | 37% | 1010.7 hPa | - | - | - | - |
| 1777469355 | 24.44° C | 51% | 1011.1 hPa | - | - | - | - |
| 1777466967 | 23.33° C | 60% | 1011.2 hPa | - | - | - | - |
| 1777466955 | 23.33° C | 60% | 1011.2 hPa | - | - | - | - |
| 1777464555 | 25.56° C | 51% | 1011.4 hPa | - | - | - | - |
| 1777462155 | 26.67° C | 50% | 1011.5 hPa | - | - | - | - |
| 1777459755 | 23.89° C | 61% | 1011.5 hPa | - | - | - | - |
| 1777457355 | 24.44° C | 51% | 1011.3 hPa | - | - | - | - |
| 1777454955 | 26.67° C | 45% | 1011 hPa | - | - | - | - |
| 1777452555 | 27.22° C | 42% | 1011 hPa | - | - | - | - |
| 1777450155 | 26.67° C | 46% | 1010.8 hPa | - | - | - | - |
| 1777447755 | 25° C | 49% | 1010.5 hPa | - | - | - | - |
| 1777445355 | 20.56° C | 77% | 1010.1 hPa | - | - | - | - |
| 1777442955 | 17.22° C | 100% | 1009.8 hPa | - | - | - | - |
| 1777440554 | 15.56° C | 100% | 1009.9 hPa | - | - | - | - |
| 1777438154 | 15° C | 100% | 1009.9 hPa | - | - | - | - |
| 1777435754 | 14.44° C | 100% | 1010 hPa | - | - | - | - |
| 1777433354 | 14.44° C | 100% | 1010.4 hPa | - | - | - | - |
| 1777430954 | 15.56° C | 100% | 1010.5 hPa | - | - | - | - |
| 1777428554 | 15.56° C | 100% | 1010.9 hPa | - | - | - | - |
| 1777426154 | 15.56° C | 100% | 1011 hPa | - | - | - | - |
| 1777423754 | 15° C | 100% | 1011.5 hPa | - | - | - | - |
| 1777421354 | 14.44° C | 100% | 1011.7 hPa | - | - | - | - |
* Rain since midnight (hover to see other rain measurements)
** Current wind speed in m/s (hover to see current wind gust speed)